sensor_id;sensor_type;location;lat;lon;timestamp;P1;durP1;ratioP1;P2;durP2;ratioP2
20298;SDS011;10308;42.688;23.256;2023-01-25T00:01:33;8.18;;;7.43;;
20298;SDS011;10308;42.688;23.256;2023-01-25T00:04:00;8.52;;;7.82;;
20298;SDS011;10308;42.688;23.256;2023-01-25T00:06:27;9.45;;;8.52;;
20298;SDS011;10308;42.688;23.256;2023-01-25T00:08:53;8.88;;;8.05;;
20298;SDS011;10308;42.688;23.256;2023-01-25T00:11:22;7.78;;;6.97;;
20298;SDS011;10308;42.688;23.256;2023-01-25T00:13:48;8.50;;;7.70;;
20298;SDS011;10308;42.688;23.256;2023-01-25T00:16:18;9.32;;;8.32;;
20298;SDS011;10308;42.688;23.256;2023-01-25T00:18:44;7.82;;;7.03;;
20298;SDS011;10308;42.688;23.256;2023-01-25T00:21:11;8.02;;;7.30;;
20298;SDS011;10308;42.688;23.256;2023-01-25T00:23:39;6.72;;;6.07;;
20298;SDS011;10308;42.688;23.256;2023-01-25T00:26:05;6.72;;;6.10;;
20298;SDS011;10308;42.688;23.256;2023-01-25T00:28:34;5.82;;;5.32;;
20298;SDS011;10308;42.688;23.256;2023-01-25T00:31:00;6.72;;;6.13;;
20298;SDS011;10308;42.688;23.256;2023-01-25T00:33:32;5.57;;;5.18;;
20298;SDS011;10308;42.688;23.256;2023-01-25T00:36:19;6.10;;;5.60;;
20298;SDS011;10308;42.688;23.256;2023-01-25T00:38:53;5.63;;;5.13;;
20298;SDS011;10308;42.688;23.256;2023-01-25T00:41:20;5.45;;;4.95;;
20298;SDS011;10308;42.688;23.256;2023-01-25T00:43:49;5.55;;;5.15;;
20298;SDS011;10308;42.688;23.256;2023-01-25T00:46:17;6.65;;;5.93;;
20298;SDS011;10308;42.688;23.256;2023-01-25T00:48:44;6.35;;;5.57;;
20298;SDS011;10308;42.688;23.256;2023-01-25T00:51:10;5.28;;;4.80;;
20298;SDS011;10308;42.688;23.256;2023-01-25T00:53:37;5.15;;;4.65;;
20298;SDS011;10308;42.688;23.256;2023-01-25T00:56:04;5.88;;;5.38;;
20298;SDS011;10308;42.688;23.256;2023-01-25T00:58:31;5.78;;;5.28;;
20298;SDS011;10308;42.688;23.256;2023-01-25T01:01:00;4.95;;;4.55;;
20298;SDS011;10308;42.688;23.256;2023-01-25T01:03:26;5.00;;;4.60;;
20298;SDS011;10308;42.688;23.256;2023-01-25T01:06:00;5.25;;;4.75;;
20298;SDS011;10308;42.688;23.256;2023-01-25T01:08:27;4.40;;;4.10;;
20298;SDS011;10308;42.688;23.256;2023-01-25T01:10:58;4.53;;;4.13;;
20298;SDS011;10308;42.688;23.256;2023-01-25T01:13:25;4.93;;;4.55;;
20298;SDS011;10308;42.688;23.256;2023-01-25T01:15:52;5.22;;;4.82;;
20298;SDS011;10308;42.688;23.256;2023-01-25T01:18:20;5.15;;;4.75;;
20298;SDS011;10308;42.688;23.256;2023-01-25T01:20:47;5.20;;;4.70;;
20298;SDS011;10308;42.688;23.256;2023-01-25T01:23:14;4.43;;;4.13;;
20298;SDS011;10308;42.688;23.256;2023-01-25T01:25:41;4.90;;;4.50;;
20298;SDS011;10308;42.688;23.256;2023-01-25T01:28:08;5.75;;;5.35;;
20298;SDS011;10308;42.688;23.256;2023-01-25T01:30:35;11.73;;;10.82;;
20298;SDS011;10308;42.688;23.256;2023-01-25T01:33:02;16.40;;;15.30;;
20298;SDS011;10308;42.688;23.256;2023-01-25T01:35:31;17.50;;;16.30;;
20298;SDS011;10308;42.688;23.256;2023-01-25T01:37:58;17.88;;;16.58;;
20298;SDS011;10308;42.688;23.256;2023-01-25T01:40:25;12.82;;;11.73;;
20298;SDS011;10308;42.688;23.256;2023-01-25T01:42:55;10.45;;;9.65;;
20298;SDS011;10308;42.688;23.256;2023-01-25T01:48:16;9.73;;;8.90;;
20298;SDS011;10308;42.688;23.256;2023-01-25T01:50:47;8.45;;;7.85;;
20298;SDS011;10308;42.688;23.256;2023-01-25T01:53:16;9.13;;;8.43;;
20298;SDS011;10308;42.688;23.256;2023-01-25T01:55:43;8.75;;;8.10;;
20298;SDS011;10308;42.688;23.256;2023-01-25T01:58:10;8.30;;;7.60;;
20298;SDS011;10308;42.688;23.256;2023-01-25T02:00:37;6.88;;;6.28;;
20298;SDS011;10308;42.688;23.256;2023-01-25T02:03:05;5.82;;;5.22;;
20298;SDS011;10308;42.688;23.256;2023-01-25T02:05:34;5.10;;;4.68;;
20298;SDS011;10308;42.688;23.256;2023-01-25T02:08:08;4.85;;;4.45;;
20298;SDS011;10308;42.688;23.256;2023-01-25T02:10:36;4.50;;;4.10;;
20298;SDS011;10308;42.688;23.256;2023-01-25T02:13:03;4.40;;;4.00;;
20298;SDS011;10308;42.688;23.256;2023-01-25T02:15:32;3.88;;;3.58;;
20298;SDS011;10308;42.688;23.256;2023-01-25T02:18:03;4.05;;;3.75;;
20298;SDS011;10308;42.688;23.256;2023-01-25T02:20:32;4.10;;;3.70;;
20298;SDS011;10308;42.688;23.256;2023-01-25T02:23:02;3.60;;;3.33;;
20298;SDS011;10308;42.688;23.256;2023-01-25T02:25:36;3.63;;;3.22;;
20298;SDS011;10308;42.688;23.256;2023-01-25T02:28:06;3.50;;;3.30;;
20298;SDS011;10308;42.688;23.256;2023-01-25T02:30:35;3.63;;;3.40;;
20298;SDS011;10308;42.688;23.256;2023-01-25T02:33:01;3.78;;;3.47;;
20298;SDS011;10308;42.688;23.256;2023-01-25T02:35:39;3.20;;;3.00;;
20298;SDS011;10308;42.688;23.256;2023-01-25T02:38:08;3.20;;;3.00;;
20298;SDS011;10308;42.688;23.256;2023-01-25T02:40:37;5.07;;;4.68;;
20298;SDS011;10308;42.688;23.256;2023-01-25T02:43:08;5.70;;;5.30;;
20298;SDS011;10308;42.688;23.256;2023-01-25T02:45:34;4.03;;;3.83;;
20298;SDS011;10308;42.688;23.256;2023-01-25T02:48:01;3.58;;;3.35;;
20298;SDS011;10308;42.688;23.256;2023-01-25T02:50:28;3.40;;;3.20;;
20298;SDS011;10308;42.688;23.256;2023-01-25T02:52:55;3.92;;;3.63;;
20298;SDS011;10308;42.688;23.256;2023-01-25T02:55:22;3.10;;;2.90;;
20298;SDS011;10308;42.688;23.256;2023-01-25T02:57:50;3.53;;;3.30;;
20298;SDS011;10308;42.688;23.256;2023-01-25T03:00:17;3.72;;;3.42;;
20298;SDS011;10308;42.688;23.256;2023-01-25T03:02:44;3.53;;;3.30;;
20298;SDS011;10308;42.688;23.256;2023-01-25T03:05:10;3.78;;;3.47;;
20298;SDS011;10308;42.688;23.256;2023-01-25T03:07:37;4.35;;;4.05;;
20298;SDS011;10308;42.688;23.256;2023-01-25T03:10:04;4.00;;;3.70;;
20298;SDS011;10308;42.688;23.256;2023-01-25T03:12:31;4.47;;;4.07;;
20298;SDS011;10308;42.688;23.256;2023-01-25T03:15:00;5.25;;;4.85;;
20298;SDS011;10308;42.688;23.256;2023-01-25T03:17:26;4.68;;;4.38;;
20298;SDS011;10308;42.688;23.256;2023-01-25T03:19:55;4.10;;;3.80;;
20298;SDS011;10308;42.688;23.256;2023-01-25T03:22:22;4.47;;;4.07;;
20298;SDS011;10308;42.688;23.256;2023-01-25T03:24:48;5.22;;;4.82;;
20298;SDS011;10308;42.688;23.256;2023-01-25T03:27:15;6.38;;;5.88;;
20298;SDS011;10308;42.688;23.256;2023-01-25T03:29:42;5.63;;;5.13;;
20298;SDS011;10308;42.688;23.256;2023-01-25T03:32:11;5.88;;;5.38;;
20298;SDS011;10308;42.688;23.256;2023-01-25T03:34:37;7.30;;;6.60;;
20298;SDS011;10308;42.688;23.256;2023-01-25T03:37:04;7.53;;;6.53;;
20298;SDS011;10308;42.688;23.256;2023-01-25T03:39:32;6.82;;;6.22;;
20298;SDS011;10308;42.688;23.256;2023-01-25T03:41:59;6.93;;;6.28;;
20298;SDS011;10308;42.688;23.256;2023-01-25T03:44:26;7.28;;;6.60;;
20298;SDS011;10308;42.688;23.256;2023-01-25T03:46:52;7.22;;;6.53;;
20298;SDS011;10308;42.688;23.256;2023-01-25T03:49:21;7.28;;;6.63;;
20298;SDS011;10308;42.688;23.256;2023-01-25T03:51:48;7.20;;;6.60;;
20298;SDS011;10308;42.688;23.256;2023-01-25T03:54:14;7.55;;;6.85;;
20298;SDS011;10308;42.688;23.256;2023-01-25T03:56:41;6.28;;;5.78;;
20298;SDS011;10308;42.688;23.256;2023-01-25T03:59:09;5.80;;;5.30;;
20298;SDS011;10308;42.688;23.256;2023-01-25T04:01:36;5.78;;;5.28;;
20298;SDS011;10308;42.688;23.256;2023-01-25T04:04:03;5.75;;;5.25;;
20298;SDS011;10308;42.688;23.256;2023-01-25T04:06:31;5.78;;;5.28;;
20298;SDS011;10308;42.688;23.256;2023-01-25T04:08:57;7.57;;;6.90;;
20298;SDS011;10308;42.688;23.256;2023-01-25T04:11:24;7.45;;;6.75;;
20298;SDS011;10308;42.688;23.256;2023-01-25T04:13:52;7.35;;;6.65;;
20298;SDS011;10308;42.688;23.256;2023-01-25T04:16:18;7.28;;;6.57;;
20298;SDS011;10308;42.688;23.256;2023-01-25T04:18:45;5.65;;;5.25;;
20298;SDS011;10308;42.688;23.256;2023-01-25T04:21:12;6.88;;;5.55;;
20298;SDS011;10308;42.688;23.256;2023-01-25T04:23:40;6.10;;;5.53;;
20298;SDS011;10308;42.688;23.256;2023-01-25T04:26:08;7.78;;;6.97;;
20298;SDS011;10308;42.688;23.256;2023-01-25T04:28:37;8.88;;;7.60;;
20298;SDS011;10308;42.688;23.256;2023-01-25T04:31:04;9.00;;;8.10;;
20298;SDS011;10308;42.688;23.256;2023-01-25T04:33:31;10.70;;;9.60;;
20298;SDS011;10308;42.688;23.256;2023-01-25T04:35:58;9.40;;;8.50;;
20298;SDS011;10308;42.688;23.256;2023-01-25T04:38:25;7.20;;;6.60;;
20298;SDS011;10308;42.688;23.256;2023-01-25T04:40:55;7.40;;;6.35;;
20298;SDS011;10308;42.688;23.256;2023-01-25T04:43:21;6.25;;;5.75;;
20298;SDS011;10308;42.688;23.256;2023-01-25T04:45:50;6.22;;;5.72;;
20298;SDS011;10308;42.688;23.256;2023-01-25T04:48:17;6.13;;;5.63;;
20298;SDS011;10308;42.688;23.256;2023-01-25T04:50:44;5.63;;;5.13;;
20298;SDS011;10308;42.688;23.256;2023-01-25T04:53:12;7.25;;;6.55;;
20298;SDS011;10308;42.688;23.256;2023-01-25T04:55:39;8.07;;;7.38;;
20298;SDS011;10308;42.688;23.256;2023-01-25T04:58:07;10.82;;;9.82;;
20298;SDS011;10308;42.688;23.256;2023-01-25T05:00:34;10.85;;;9.82;;
20298;SDS011;10308;42.688;23.256;2023-01-25T05:03:02;16.33;;;13.77;;
20298;SDS011;10308;42.688;23.256;2023-01-25T05:05:29;15.52;;;13.93;;
20298;SDS011;10308;42.688;23.256;2023-01-25T05:07:56;16.63;;;14.82;;
20298;SDS011;10308;42.688;23.256;2023-01-25T05:10:23;16.38;;;13.63;;
20298;SDS011;10308;42.688;23.256;2023-01-25T05:12:49;15.85;;;13.27;;
20298;SDS011;10308;42.688;23.256;2023-01-25T05:15:18;15.80;;;13.13;;
20298;SDS011;10308;42.688;23.256;2023-01-25T05:17:45;14.15;;;11.98;;
20298;SDS011;10308;42.688;23.256;2023-01-25T05:20:12;15.05;;;12.20;;
20298;SDS011;10308;42.688;23.256;2023-01-25T05:22:38;13.18;;;11.77;;
20298;SDS011;10308;42.688;23.256;2023-01-25T05:25:05;8.57;;;7.78;;
20298;SDS011;10308;42.688;23.256;2023-01-25T05:27:55;8.82;;;8.02;;
20298;SDS011;10308;42.688;23.256;2023-01-25T05:30:22;8.80;;;8.00;;
20298;SDS011;10308;42.688;23.256;2023-01-25T05:32:49;7.80;;;7.10;;
20298;SDS011;10308;42.688;23.256;2023-01-25T05:35:15;7.28;;;6.60;;
20298;SDS011;10308;42.688;23.256;2023-01-25T05:37:42;7.70;;;7.00;;
20298;SDS011;10308;42.688;23.256;2023-01-25T05:40:09;6.97;;;6.47;;
20298;SDS011;10308;42.688;23.256;2023-01-25T05:42:37;8.13;;;7.32;;
20298;SDS011;10308;42.688;23.256;2023-01-25T05:45:04;9.57;;;8.68;;
20298;SDS011;10308;42.688;23.256;2023-01-25T05:47:33;10.70;;;9.60;;
20298;SDS011;10308;42.688;23.256;2023-01-25T05:50:00;12.23;;;11.02;;
20298;SDS011;10308;42.688;23.256;2023-01-25T05:52:26;12.75;;;10.57;;
20298;SDS011;10308;42.688;23.256;2023-01-25T05:54:54;10.20;;;9.20;;
20298;SDS011;10308;42.688;23.256;2023-01-25T05:57:20;10.23;;;9.32;;
20298;SDS011;10308;42.688;23.256;2023-01-25T05:59:47;11.70;;;10.70;;
20298;SDS011;10308;42.688;23.256;2023-01-25T06:02:14;9.88;;;8.98;;
20298;SDS011;10308;42.688;23.256;2023-01-25T06:04:42;13.00;;;12.00;;
20298;SDS011;10308;42.688;23.256;2023-01-25T06:07:09;13.07;;;11.93;;
20298;SDS011;10308;42.688;23.256;2023-01-25T06:09:36;11.30;;;10.30;;
20298;SDS011;10308;42.688;23.256;2023-01-25T06:12:03;10.50;;;9.60;;
20298;SDS011;10308;42.688;23.256;2023-01-25T06:14:30;11.15;;;10.15;;
20298;SDS011;10308;42.688;23.256;2023-01-25T06:16:57;11.18;;;10.18;;
20298;SDS011;10308;42.688;23.256;2023-01-25T06:19:24;11.95;;;10.85;;
20298;SDS011;10308;42.688;23.256;2023-01-25T06:21:53;11.60;;;10.60;;
20298;SDS011;10308;42.688;23.256;2023-01-25T06:24:19;11.00;;;10.10;;
20298;SDS011;10308;42.688;23.256;2023-01-25T06:26:46;11.13;;;10.13;;
20298;SDS011;10308;42.688;23.256;2023-01-25T06:29:13;11.52;;;10.52;;
20298;SDS011;10308;42.688;23.256;2023-01-25T06:31:40;11.75;;;10.75;;
20298;SDS011;10308;42.688;23.256;2023-01-25T06:34:07;12.88;;;11.73;;
20298;SDS011;10308;42.688;23.256;2023-01-25T06:36:33;13.95;;;12.65;;
20298;SDS011;10308;42.688;23.256;2023-01-25T06:39:02;10.00;;;9.07;;
20298;SDS011;10308;42.688;23.256;2023-01-25T06:41:29;6.63;;;6.03;;
20298;SDS011;10308;42.688;23.256;2023-01-25T06:43:55;6.30;;;5.70;;
20298;SDS011;10308;42.688;23.256;2023-01-25T06:46:22;6.80;;;6.10;;
20298;SDS011;10308;42.688;23.256;2023-01-25T06:48:49;6.50;;;5.90;;
20298;SDS011;10308;42.688;23.256;2023-01-25T06:51:16;6.45;;;5.85;;
20298;SDS011;10308;42.688;23.256;2023-01-25T06:53:45;5.55;;;5.13;;
20298;SDS011;10308;42.688;23.256;2023-01-25T06:56:14;5.97;;;5.50;;
20298;SDS011;10308;42.688;23.256;2023-01-25T06:58:42;5.90;;;5.40;;
20298;SDS011;10308;42.688;23.256;2023-01-25T07:01:11;6.30;;;5.80;;
20298;SDS011;10308;42.688;23.256;2023-01-25T07:03:39;5.78;;;5.28;;
20298;SDS011;10308;42.688;23.256;2023-01-25T07:06:06;7.22;;;6.63;;
20298;SDS011;10308;42.688;23.256;2023-01-25T07:08:35;6.90;;;6.25;;
20298;SDS011;10308;42.688;23.256;2023-01-25T07:11:03;7.45;;;6.82;;
20298;SDS011;10308;42.688;23.256;2023-01-25T07:13:34;8.10;;;7.40;;
20298;SDS011;10308;42.688;23.256;2023-01-25T07:16:04;6.63;;;6.10;;
20298;SDS011;10308;42.688;23.256;2023-01-25T07:18:33;6.10;;;5.60;;
20298;SDS011;10308;42.688;23.256;2023-01-25T07:21:02;6.18;;;5.68;;
20298;SDS011;10308;42.688;23.256;2023-01-25T07:23:29;6.95;;;6.35;;
20298;SDS011;10308;42.688;23.256;2023-01-25T07:25:58;6.15;;;5.63;;
20298;SDS011;10308;42.688;23.256;2023-01-25T07:28:25;6.38;;;5.88;;
20298;SDS011;10308;42.688;23.256;2023-01-25T07:30:53;7.28;;;6.68;;
20298;SDS011;10308;42.688;23.256;2023-01-25T07:33:21;6.82;;;6.22;;
20298;SDS011;10308;42.688;23.256;2023-01-25T07:35:48;7.15;;;6.55;;
20298;SDS011;10308;42.688;23.256;2023-01-25T07:38:15;7.03;;;6.28;;
20298;SDS011;10308;42.688;23.256;2023-01-25T07:40:42;6.38;;;5.78;;
20298;SDS011;10308;42.688;23.256;2023-01-25T07:43:09;5.03;;;4.63;;
20298;SDS011;10308;42.688;23.256;2023-01-25T07:45:35;5.30;;;4.90;;
20298;SDS011;10308;42.688;23.256;2023-01-25T07:48:08;6.90;;;6.30;;
20298;SDS011;10308;42.688;23.256;2023-01-25T07:50:35;6.53;;;6.00;;
20298;SDS011;10308;42.688;23.256;2023-01-25T07:53:03;6.35;;;5.85;;
20298;SDS011;10308;42.688;23.256;2023-01-25T07:55:30;5.40;;;5.00;;
20298;SDS011;10308;42.688;23.256;2023-01-25T07:57:57;5.10;;;4.70;;
20298;SDS011;10308;42.688;23.256;2023-01-25T08:00:24;4.90;;;4.50;;
20298;SDS011;10308;42.688;23.256;2023-01-25T08:02:51;4.43;;;4.13;;
20298;SDS011;10308;42.688;23.256;2023-01-25T08:05:19;4.15;;;3.85;;
20298;SDS011;10308;42.688;23.256;2023-01-25T08:07:46;4.07;;;3.78;;
20298;SDS011;10308;42.688;23.256;2023-01-25T08:10:13;5.35;;;4.60;;
20298;SDS011;10308;42.688;23.256;2023-01-25T08:12:43;4.70;;;4.30;;
20298;SDS011;10308;42.688;23.256;2023-01-25T08:15:10;5.00;;;4.60;;
20298;SDS011;10308;42.688;23.256;2023-01-25T08:17:37;7.22;;;6.63;;
20298;SDS011;10308;42.688;23.256;2023-01-25T08:20:04;7.22;;;6.60;;
20298;SDS011;10308;42.688;23.256;2023-01-25T08:22:33;15.00;;;11.95;;
20298;SDS011;10308;42.688;23.256;2023-01-25T08:25:00;10.68;;;9.00;;
20298;SDS011;10308;42.688;23.256;2023-01-25T08:27:27;9.32;;;8.30;;
20298;SDS011;10308;42.688;23.256;2023-01-25T08:29:54;8.60;;;7.70;;
20298;SDS011;10308;42.688;23.256;2023-01-25T08:32:21;7.90;;;7.30;;
20298;SDS011;10308;42.688;23.256;2023-01-25T08:34:47;9.13;;;8.30;;
20298;SDS011;10308;42.688;23.256;2023-01-25T08:37:14;9.00;;;8.30;;
20298;SDS011;10308;42.688;23.256;2023-01-25T08:39:42;8.20;;;7.43;;
20298;SDS011;10308;42.688;23.256;2023-01-25T08:42:09;8.30;;;7.50;;
20298;SDS011;10308;42.688;23.256;2023-01-25T08:44:36;9.55;;;8.55;;
20298;SDS011;10308;42.688;23.256;2023-01-25T08:47:03;7.80;;;7.00;;
20298;SDS011;10308;42.688;23.256;2023-01-25T08:49:30;8.15;;;7.00;;
20298;SDS011;10308;42.688;23.256;2023-01-25T08:51:58;8.10;;;7.40;;
20298;SDS011;10308;42.688;23.256;2023-01-25T08:54:25;7.20;;;6.60;;
20298;SDS011;10308;42.688;23.256;2023-01-25T08:56:53;8.02;;;7.35;;
20298;SDS011;10308;42.688;23.256;2023-01-25T08:59:20;8.27;;;7.57;;
20298;SDS011;10308;42.688;23.256;2023-01-25T09:01:47;7.80;;;7.00;;
20298;SDS011;10308;42.688;23.256;2023-01-25T09:04:14;9.80;;;7.78;;
20298;SDS011;10308;42.688;23.256;2023-01-25T09:06:41;8.40;;;7.55;;
20298;SDS011;10308;42.688;23.256;2023-01-25T09:09:07;7.10;;;6.50;;
20298;SDS011;10308;42.688;23.256;2023-01-25T09:11:34;7.88;;;7.18;;
20298;SDS011;10308;42.688;23.256;2023-01-25T09:14:03;7.72;;;7.13;;
20298;SDS011;10308;42.688;23.256;2023-01-25T09:16:49;8.25;;;7.47;;
20298;SDS011;10308;42.688;23.256;2023-01-25T09:19:34;7.82;;;7.03;;
20298;SDS011;10308;42.688;23.256;2023-01-25T09:22:20;7.93;;;7.32;;
20298;SDS011;10308;42.688;23.256;2023-01-25T09:25:06;7.60;;;7.00;;
20298;SDS011;10308;42.688;23.256;2023-01-25T09:27:51;7.20;;;6.60;;
20298;SDS011;10308;42.688;23.256;2023-01-25T09:30:39;6.90;;;6.40;;
20298;SDS011;10308;42.688;23.256;2023-01-25T09:33:25;7.03;;;6.53;;
20298;SDS011;10308;42.688;23.256;2023-01-25T09:36:11;7.10;;;6.50;;
20298;SDS011;10308;42.688;23.256;2023-01-25T09:38:56;8.10;;;7.50;;
20298;SDS011;10308;42.688;23.256;2023-01-25T09:45:07;7.63;;;7.03;;
20298;SDS011;10308;42.688;23.256;2023-01-25T09:48:00;8.35;;;7.55;;
20298;SDS011;10308;42.688;23.256;2023-01-25T09:51:02;9.02;;;7.97;;
20298;SDS011;10308;42.688;23.256;2023-01-25T09:53:54;7.55;;;6.95;;
20298;SDS011;10308;42.688;23.256;2023-01-25T09:56:41;6.60;;;6.10;;
20298;SDS011;10308;42.688;23.256;2023-01-25T09:59:27;6.75;;;6.25;;
20298;SDS011;10308;42.688;23.256;2023-01-25T10:02:18;5.60;;;5.10;;
20298;SDS011;10308;42.688;23.256;2023-01-25T10:05:11;6.55;;;6.05;;
20298;SDS011;10308;42.688;23.256;2023-01-25T10:08:00;5.78;;;5.25;;
20298;SDS011;10308;42.688;23.256;2023-01-25T10:10:47;6.00;;;5.60;;
20298;SDS011;10308;42.688;23.256;2023-01-25T10:13:34;6.20;;;5.60;;
20298;SDS011;10308;42.688;23.256;2023-01-25T10:16:21;7.47;;;6.60;;
20298;SDS011;10308;42.688;23.256;2023-01-25T10:19:11;7.93;;;5.97;;
20298;SDS011;10308;42.688;23.256;2023-01-25T10:22:02;6.00;;;5.47;;
20298;SDS011;10308;42.688;23.256;2023-01-25T10:24:56;5.40;;;4.90;;
20298;SDS011;10308;42.688;23.256;2023-01-25T10:27:49;5.97;;;5.47;;
20298;SDS011;10308;42.688;23.256;2023-01-25T10:30:42;8.30;;;6.30;;
20298;SDS011;10308;42.688;23.256;2023-01-25T10:33:34;8.98;;;6.45;;
20298;SDS011;10308;42.688;23.256;2023-01-25T10:36:23;7.38;;;6.68;;
20298;SDS011;10308;42.688;23.256;2023-01-25T10:39:13;6.20;;;5.53;;
20298;SDS011;10308;42.688;23.256;2023-01-25T10:42:00;7.97;;;7.28;;
20298;SDS011;10308;42.688;23.256;2023-01-25T10:44:47;8.40;;;7.65;;
20298;SDS011;10308;42.688;23.256;2023-01-25T10:47:33;6.68;;;6.18;;
20298;SDS011;10308;42.688;23.256;2023-01-25T10:53:28;6.10;;;5.60;;
20298;SDS011;10308;42.688;23.256;2023-01-25T10:56:20;7.50;;;6.57;;
20298;SDS011;10308;42.688;23.256;2023-01-25T10:59:12;6.53;;;6.00;;
20298;SDS011;10308;42.688;23.256;2023-01-25T11:05:30;5.30;;;4.90;;
20298;SDS011;10308;42.688;23.256;2023-01-25T11:08:21;5.05;;;4.65;;
20298;SDS011;10308;42.688;23.256;2023-01-25T11:11:13;5.40;;;4.90;;
20298;SDS011;10308;42.688;23.256;2023-01-25T11:14:14;6.28;;;5.68;;
20298;SDS011;10308;42.688;23.256;2023-01-25T11:17:00;6.43;;;5.93;;
20298;SDS011;10308;42.688;23.256;2023-01-25T11:19:48;6.30;;;5.60;;
20298;SDS011;10308;42.688;23.256;2023-01-25T11:22:33;5.90;;;5.40;;
20298;SDS011;10308;42.688;23.256;2023-01-25T11:25:28;5.28;;;4.88;;
20298;SDS011;10308;42.688;23.256;2023-01-25T11:28:20;6.07;;;5.57;;
20298;SDS011;10308;42.688;23.256;2023-01-25T11:31:08;5.40;;;4.90;;
20298;SDS011;10308;42.688;23.256;2023-01-25T11:33:56;6.38;;;5.57;;
20298;SDS011;10308;42.688;23.256;2023-01-25T11:36:44;5.20;;;4.80;;
20298;SDS011;10308;42.688;23.256;2023-01-25T11:39:39;6.93;;;6.22;;
20298;SDS011;10308;42.688;23.256;2023-01-25T11:42:32;5.57;;;5.07;;
20298;SDS011;10308;42.688;23.256;2023-01-25T11:45:40;5.75;;;5.30;;
20298;SDS011;10308;42.688;23.256;2023-01-25T11:48:41;6.20;;;5.60;;
20298;SDS011;10308;42.688;23.256;2023-01-25T11:51:35;5.30;;;4.90;;
20298;SDS011;10308;42.688;23.256;2023-01-25T11:54:41;5.30;;;4.90;;
20298;SDS011;10308;42.688;23.256;2023-01-25T12:00:43;5.35;;;4.88;;
20298;SDS011;10308;42.688;23.256;2023-01-25T12:03:40;5.20;;;4.80;;
20298;SDS011;10308;42.688;23.256;2023-01-25T12:06:48;7.03;;;6.38;;
20298;SDS011;10308;42.688;23.256;2023-01-25T12:09:48;6.50;;;5.85;;
20298;SDS011;10308;42.688;23.256;2023-01-25T12:12:41;7.47;;;6.65;;
20298;SDS011;10308;42.688;23.256;2023-01-25T12:15:34;6.90;;;6.30;;
20298;SDS011;10308;42.688;23.256;2023-01-25T12:18:39;7.93;;;7.13;;
20298;SDS011;10308;42.688;23.256;2023-01-25T12:21:40;7.97;;;7.28;;
20298;SDS011;10308;42.688;23.256;2023-01-25T12:24:36;7.90;;;7.20;;
20298;SDS011;10308;42.688;23.256;2023-01-25T12:27:32;6.40;;;5.80;;
20298;SDS011;10308;42.688;23.256;2023-01-25T12:30:25;5.97;;;5.47;;
20298;SDS011;10308;42.688;23.256;2023-01-25T12:33:23;4.50;;;4.10;;
20298;SDS011;10308;42.688;23.256;2023-01-25T12:36:12;5.28;;;4.90;;
20298;SDS011;10308;42.688;23.256;2023-01-25T12:39:00;9.05;;;8.23;;
20298;SDS011;10308;42.688;23.256;2023-01-25T12:41:49;9.13;;;7.80;;
20298;SDS011;10308;42.688;23.256;2023-01-25T12:44:37;8.95;;;6.22;;
20298;SDS011;10308;42.688;23.256;2023-01-25T12:47:27;6.60;;;6.00;;
20298;SDS011;10308;42.688;23.256;2023-01-25T12:50:18;7.15;;;6.18;;
20298;SDS011;10308;42.688;23.256;2023-01-25T12:53:06;5.30;;;4.80;;
20298;SDS011;10308;42.688;23.256;2023-01-25T12:56:00;5.22;;;4.82;;
20298;SDS011;10308;42.688;23.256;2023-01-25T12:58:46;5.40;;;5.00;;
20298;SDS011;10308;42.688;23.256;2023-01-25T13:01:34;5.13;;;4.75;;
20298;SDS011;10308;42.688;23.256;2023-01-25T13:04:28;4.90;;;4.50;;
20298;SDS011;10308;42.688;23.256;2023-01-25T13:07:28;5.88;;;5.20;;
20298;SDS011;10308;42.688;23.256;2023-01-25T13:10:19;5.15;;;4.65;;
20298;SDS011;10308;42.688;23.256;2023-01-25T13:13:20;5.05;;;4.65;;
20298;SDS011;10308;42.688;23.256;2023-01-25T13:19:21;6.82;;;6.32;;
20298;SDS011;10308;42.688;23.256;2023-01-25T13:25:41;6.53;;;5.93;;
20298;SDS011;10308;42.688;23.256;2023-01-25T13:31:04;5.63;;;5.22;;
20298;SDS011;10308;42.688;23.256;2023-01-25T13:33:32;5.88;;;5.38;;
20298;SDS011;10308;42.688;23.256;2023-01-25T13:39:00;5.35;;;4.85;;
20298;SDS011;10308;42.688;23.256;2023-01-25T13:41:27;5.70;;;5.20;;
20298;SDS011;10308;42.688;23.256;2023-01-25T13:44:07;6.30;;;5.80;;
20298;SDS011;10308;42.688;23.256;2023-01-25T13:46:42;6.40;;;5.90;;
20298;SDS011;10308;42.688;23.256;2023-01-25T13:49:12;7.68;;;6.97;;
20298;SDS011;10308;42.688;23.256;2023-01-25T13:51:44;8.10;;;7.30;;
20298;SDS011;10308;42.688;23.256;2023-01-25T13:54:15;6.60;;;6.05;;
20298;SDS011;10308;42.688;23.256;2023-01-25T13:56:42;6.78;;;6.18;;
20298;SDS011;10308;42.688;23.256;2023-01-25T13:59:22;6.25;;;5.75;;
20298;SDS011;10308;42.688;23.256;2023-01-25T14:01:49;6.43;;;5.93;;
20298;SDS011;10308;42.688;23.256;2023-01-25T14:04:16;6.57;;;5.97;;
20298;SDS011;10308;42.688;23.256;2023-01-25T14:06:43;6.05;;;5.65;;
20298;SDS011;10308;42.688;23.256;2023-01-25T14:09:10;7.53;;;6.90;;
20298;SDS011;10308;42.688;23.256;2023-01-25T14:11:43;7.55;;;6.95;;
20298;SDS011;10308;42.688;23.256;2023-01-25T14:14:19;8.13;;;7.32;;
20298;SDS011;10308;42.688;23.256;2023-01-25T14:16:59;6.97;;;6.38;;
20298;SDS011;10308;42.688;23.256;2023-01-25T14:19:27;7.78;;;6.85;;
20298;SDS011;10308;42.688;23.256;2023-01-25T14:22:17;7.03;;;6.43;;
20298;SDS011;10308;42.688;23.256;2023-01-25T14:25:00;6.85;;;6.35;;
20298;SDS011;10308;42.688;23.256;2023-01-25T14:27:29;7.97;;;7.38;;
20298;SDS011;10308;42.688;23.256;2023-01-25T14:29:55;8.05;;;7.25;;
20298;SDS011;10308;42.688;23.256;2023-01-25T14:32:22;7.00;;;6.40;;
20298;SDS011;10308;42.688;23.256;2023-01-25T14:34:51;8.20;;;7.50;;
20298;SDS011;10308;42.688;23.256;2023-01-25T14:37:18;7.07;;;6.47;;
20298;SDS011;10308;42.688;23.256;2023-01-25T14:39:47;7.15;;;6.55;;
20298;SDS011;10308;42.688;23.256;2023-01-25T14:42:14;7.30;;;6.70;;
20298;SDS011;10308;42.688;23.256;2023-01-25T14:44:43;6.68;;;6.10;;
20298;SDS011;10308;42.688;23.256;2023-01-25T14:47:20;7.70;;;7.10;;
20298;SDS011;10308;42.688;23.256;2023-01-25T14:49:51;7.88;;;7.10;;
20298;SDS011;10308;42.688;23.256;2023-01-25T14:52:18;8.05;;;7.40;;
20298;SDS011;10308;42.688;23.256;2023-01-25T14:54:47;8.13;;;7.43;;
20298;SDS011;10308;42.688;23.256;2023-01-25T14:57:24;9.80;;;8.90;;
20298;SDS011;10308;42.688;23.256;2023-01-25T14:59:57;11.52;;;10.40;;
20298;SDS011;10308;42.688;23.256;2023-01-25T15:02:26;8.32;;;7.63;;
20298;SDS011;10308;42.688;23.256;2023-01-25T15:04:56;7.57;;;6.97;;
20298;SDS011;10308;42.688;23.256;2023-01-25T15:07:32;7.15;;;6.65;;
20298;SDS011;10308;42.688;23.256;2023-01-25T15:10:01;8.55;;;7.85;;
20298;SDS011;10308;42.688;23.256;2023-01-25T15:12:29;9.15;;;8.30;;
20298;SDS011;10308;42.688;23.256;2023-01-25T15:14:58;8.35;;;7.63;;
20298;SDS011;10308;42.688;23.256;2023-01-25T15:17:44;7.90;;;7.25;;
20298;SDS011;10308;42.688;23.256;2023-01-25T15:20:24;8.35;;;7.60;;
20298;SDS011;10308;42.688;23.256;2023-01-25T15:22:56;7.15;;;6.65;;
20298;SDS011;10308;42.688;23.256;2023-01-25T15:25:25;8.30;;;7.45;;
20298;SDS011;10308;42.688;23.256;2023-01-25T15:27:52;8.50;;;7.70;;
20298;SDS011;10308;42.688;23.256;2023-01-25T15:30:21;8.20;;;7.50;;
20298;SDS011;10308;42.688;23.256;2023-01-25T15:32:47;7.72;;;7.05;;
20298;SDS011;10308;42.688;23.256;2023-01-25T15:35:15;8.55;;;7.82;;
20298;SDS011;10308;42.688;23.256;2023-01-25T15:37:43;9.00;;;8.10;;